Weather at Grammar Airport

Public forecast

Using degrees Fahrenheit for public forecast. Weather courtesy of forecast.io.

Closest aviation weather report (METAR) to Grammar Airport

Closest report is Penn Yan Airport, 14.7 nm (27.3 km) S. Retrieved 2020/11/25 06:53 UTC (29 minutes ago):

KPEO 250653Z AUTO 17012KT 10SM -RA OVC075 04/M02 A3015 RMK AO2 RAB51 SLP218 P0000 T00391022

Closest aviation forecast (TAF) to Grammar Airport

Closest forecast is Greater Rochester International Airport, 30.7 nm (56.9 km) WNW. Retrieved 2020/11/25 06:22 UTC (60 minutes ago):

TAF KROC 250520Z 2506/2606 14006KT 2SM -SN OVC025 FM250630 14008KT 6SM -RASN OVC050 FM250800 17008KT P6SM OVC060 FM251100 18010KT P6SM BKN080 FM251500 21012KT P6SM SCT080 BKN150 FM252100 18008KT 6SM -RA BR OVC025 FM260200 17006KT 5SM -RA BR OVC015